createdAt,value
2019-02-07T00:02:10.327Z,23.97
2019-02-07T00:04:39.538Z,24.00
2019-02-07T00:07:09.372Z,23.30
2019-02-07T00:09:38.613Z,24.57
2019-02-07T00:12:08.592Z,23.70
2019-02-07T00:14:56.991Z,23.70
2019-02-07T00:17:26.512Z,24.27
2019-02-07T00:19:56.183Z,21.83
2019-02-07T00:22:25.851Z,24.43
2019-02-07T00:24:55.144Z,22.43
2019-02-07T00:27:24.523Z,24.40
2019-02-07T00:29:54.160Z,25.43
2019-02-07T00:32:23.441Z,22.85
2019-02-07T00:34:53.339Z,24.43
2019-02-07T00:37:22.935Z,23.30
2019-02-07T00:39:53.075Z,23.97
2019-02-07T00:42:22.348Z,22.58
2019-02-07T00:44:52.281Z,23.43
2019-02-07T00:47:22.550Z,23.07
2019-02-07T00:49:51.904Z,23.93
2019-02-07T00:52:21.072Z,24.90
2019-02-07T00:54:50.632Z,24.77
2019-02-07T00:57:19.993Z,22.77
2019-02-07T00:59:49.217Z,23.07
2019-02-07T01:02:18.783Z,24.03
2019-02-07T01:04:48.279Z,25.07
2019-02-07T01:07:17.575Z,24.87
2019-02-07T01:09:46.787Z,23.93
2019-02-07T01:12:16.057Z,22.80
2019-02-07T01:14:45.653Z,21.77
2019-02-07T01:17:14.999Z,22.73
2019-02-07T01:19:44.248Z,22.00
2019-02-07T01:22:13.561Z,24.07
2019-02-07T01:24:43.214Z,22.23
2019-02-07T01:27:12.505Z,22.47
2019-02-07T01:29:42.541Z,22.87
2019-02-07T01:32:12.099Z,22.93
2019-02-07T01:34:41.331Z,25.17
2019-02-07T01:37:10.775Z,23.50
2019-02-07T01:39:40.630Z,23.83
2019-02-07T01:42:10.120Z,24.97
2019-02-07T01:44:39.664Z,23.47
2019-02-07T01:47:09.099Z,24.15
2019-02-07T01:49:38.365Z,22.40
2019-02-07T01:52:07.699Z,23.30
2019-02-07T01:54:37.030Z,21.17
2019-02-07T01:57:06.333Z,22.75
2019-02-07T01:59:35.559Z,23.10
2019-02-07T02:02:05.531Z,22.85
2019-02-07T02:04:35.234Z,24.47
2019-02-07T02:07:04.588Z,25.40
2019-02-07T02:09:33.870Z,23.27
2019-02-07T02:12:03.778Z,23.70
2019-02-07T02:14:33.082Z,23.77
2019-02-07T02:17:02.373Z,24.32
2019-02-07T02:19:31.720Z,23.90
2019-02-07T02:22:01.446Z,22.98
2019-02-07T02:24:30.621Z,22.73
2019-02-07T02:27:00.276Z,22.27
2019-02-07T02:29:29.652Z,24.80
2019-02-07T02:31:59.267Z,23.20
2019-02-07T02:34:28.429Z,24.60
2019-02-07T02:36:57.751Z,23.63
2019-02-07T02:39:27.432Z,23.13
2019-02-07T02:41:56.758Z,21.90
2019-02-07T02:44:26.187Z,23.70
2019-02-07T02:46:55.675Z,23.80
2019-02-07T02:49:25.208Z,23.00
2019-02-07T02:51:54.371Z,22.17
2019-02-07T02:54:42.844Z,21.30
2019-02-07T02:57:12.589Z,20.43
2019-02-07T02:59:42.043Z,25.10
2019-02-07T03:02:37.337Z,22.90
2019-02-07T03:05:43.709Z,22.33
2019-02-07T03:08:30.420Z,21.30
2019-02-07T03:11:17.596Z,22.60
2019-02-07T03:14:04.807Z,24.27
2019-02-07T03:16:51.758Z,22.55
2019-02-07T03:19:55.472Z,21.07
2019-02-07T03:22:44.356Z,23.50
2019-02-07T03:25:49.994Z,22.47
2019-02-07T03:28:41.528Z,20.60
2019-02-07T03:31:30.712Z,21.60
2019-02-07T03:34:17.464Z,21.30
2019-02-07T03:37:05.719Z,21.23
2019-02-07T03:39:54.391Z,22.60
2019-02-07T03:42:37.266Z,22.07
2019-02-07T03:45:25.839Z,24.07
2019-02-07T03:48:13.256Z,23.55
2019-02-07T03:51:20.186Z,22.27
2019-02-07T03:54:11.037Z,21.50
2019-02-07T03:56:52.131Z,22.90
2019-02-07T03:59:46.684Z,21.63
2019-02-07T04:02:41.105Z,22.40
2019-02-07T04:05:28.524Z,21.40
2019-02-07T04:08:25.956Z,21.50
2019-02-07T04:11:32.910Z,21.50
2019-02-07T04:14:14.659Z,20.60
2019-02-07T04:17:03.510Z,20.50
2019-02-07T04:19:55.203Z,20.70
2019-02-07T04:23:01.568Z,20.43
2019-02-07T04:25:44.699Z,20.27
2019-02-07T04:28:42.163Z,21.43
2019-02-07T04:31:30.664Z,21.77
2019-02-07T04:34:18.937Z,22.77
2019-02-07T04:37:01.579Z,22.27
2019-02-07T04:39:53.436Z,21.17
2019-02-07T04:42:31.345Z,20.93
2019-02-07T04:45:23.000Z,21.73
2019-02-07T04:48:10.269Z,21.97
2019-02-07T04:51:03.269Z,21.30
2019-02-07T04:53:55.010Z,20.13
2019-02-07T04:56:49.259Z,22.50
2019-02-07T04:59:26.006Z,20.27
2019-02-07T05:02:11.721Z,21.93
2019-02-07T05:04:53.322Z,22.62
2019-02-07T05:07:35.601Z,22.17
2019-02-07T05:10:28.379Z,21.52
2019-02-07T05:13:15.787Z,20.52
2019-02-07T05:16:03.131Z,22.55
2019-02-07T05:18:47.828Z,21.48
2019-02-07T05:21:56.166Z,21.33
2019-02-07T05:24:34.658Z,22.10
2019-02-07T05:27:34.993Z,21.03
2019-02-07T05:30:19.947Z,21.68
2019-02-07T05:33:06.557Z,23.33
2019-02-07T05:35:53.927Z,22.10
2019-02-07T05:38:42.170Z,21.23
2019-02-07T05:41:30.261Z,21.00
2019-02-07T05:44:17.441Z,22.10
2019-02-07T05:47:04.351Z,21.97
2019-02-07T05:49:52.620Z,20.48
2019-02-07T05:52:46.802Z,20.90
2019-02-07T05:55:34.109Z,21.40
2019-02-07T05:58:21.726Z,22.37
2019-02-07T06:01:16.125Z,21.97
2019-02-07T06:04:04.377Z,22.07
2019-02-07T06:06:42.293Z,21.70
2019-02-07T06:09:49.148Z,22.07
2019-02-07T06:12:36.124Z,22.27
2019-02-07T06:15:25.181Z,22.87
2019-02-07T06:18:24.271Z,23.90
2019-02-07T06:21:12.791Z,21.77
2019-02-07T06:23:59.658Z,21.40
2019-02-07T06:26:46.458Z,22.97
2019-02-07T06:29:40.463Z,21.37
2019-02-07T06:32:21.971Z,23.00
2019-02-07T06:35:08.375Z,21.45
2019-02-07T06:38:04.113Z,23.87
2019-02-07T06:40:55.103Z,23.50
2019-02-07T06:43:46.482Z,23.60
2019-02-07T06:46:40.696Z,21.42
2019-02-07T06:49:38.092Z,22.47
2019-02-07T06:52:28.834Z,20.13
2019-02-07T06:55:12.551Z,21.63
2019-02-07T06:58:01.008Z,22.30
2019-02-07T07:00:42.735Z,19.85
2019-02-07T07:03:29.779Z,21.73
2019-02-07T07:06:27.388Z,20.73
2019-02-07T07:09:14.205Z,22.87
2019-02-07T07:12:01.143Z,21.40
2019-02-07T07:14:58.127Z,21.40
2019-02-07T07:17:45.922Z,22.85
2019-02-07T07:20:43.493Z,20.92
2019-02-07T07:23:33.452Z,21.77
2019-02-07T07:26:21.702Z,23.38
2019-02-07T07:29:08.511Z,22.10
2019-02-07T07:31:55.982Z,21.03
2019-02-07T07:34:44.183Z,21.50
2019-02-07T07:37:32.749Z,21.27
2019-02-07T07:40:13.122Z,22.63
2019-02-07T07:43:15.134Z,22.13
2019-02-07T07:46:01.956Z,21.73
2019-02-07T07:48:49.432Z,21.33
2019-02-07T07:51:36.433Z,22.60
2019-02-07T07:54:25.268Z,22.20
2019-02-07T07:57:19.516Z,21.33
2019-02-07T08:00:07.784Z,22.20
2019-02-07T08:02:54.715Z,22.60
2019-02-07T08:05:47.430Z,23.93
2019-02-07T08:08:35.995Z,22.30
2019-02-07T08:11:23.896Z,23.22
2019-02-07T08:14:12.536Z,21.50
2019-02-07T08:16:59.683Z,22.13
2019-02-07T08:19:46.899Z,24.13
2019-02-07T08:22:32.976Z,22.30
2019-02-07T08:25:33.225Z,24.03
2019-02-07T08:28:29.936Z,23.67
2019-02-07T08:31:24.429Z,23.60
2019-02-07T08:34:12.781Z,22.30
2019-02-07T08:37:16.265Z,23.53
2019-02-07T08:40:04.503Z,23.90
2019-02-07T08:42:54.084Z,23.67
2019-02-07T08:45:41.547Z,23.00
2019-02-07T08:48:41.956Z,23.90
2019-02-07T08:51:30.160Z,22.87
2019-02-07T08:54:24.158Z,24.07
2019-02-07T08:57:12.464Z,25.03
2019-02-07T09:00:03.851Z,24.40
2019-02-07T09:02:58.322Z,23.87
2019-02-07T09:05:49.892Z,24.90
2019-02-07T09:08:43.904Z,25.95
2019-02-07T09:11:30.598Z,23.17
2019-02-07T09:14:28.155Z,24.20
2019-02-07T09:17:28.764Z,24.47
2019-02-07T09:20:08.462Z,26.50
2019-02-07T09:22:55.129Z,25.70
2019-02-07T09:25:52.452Z,25.90
2019-02-07T09:28:40.670Z,26.77
2019-02-07T09:31:44.308Z,28.00
2019-02-07T09:34:31.553Z,24.70
2019-02-07T09:37:22.667Z,25.13
2019-02-07T09:40:01.916Z,26.42
2019-02-07T09:42:49.088Z,26.77
2019-02-07T09:45:38.095Z,25.45
2019-02-07T09:48:24.930Z,25.50
2019-02-07T09:51:13.191Z,25.90
2019-02-07T09:54:00.265Z,27.73
2019-02-07T09:56:51.448Z,24.90
2019-02-07T09:59:39.891Z,25.37
2019-02-07T10:02:27.060Z,24.90
2019-02-07T10:05:18.344Z,27.50
2019-02-07T10:08:09.387Z,26.70
2019-02-07T10:10:45.126Z,26.40
2019-02-07T10:13:23.007Z,27.70
2019-02-07T10:16:14.352Z,26.87
2019-02-07T10:18:58.270Z,27.50
2019-02-07T10:21:56.551Z,28.42
2019-02-07T10:24:40.764Z,26.90
2019-02-07T10:27:40.951Z,29.17
2019-02-07T10:30:42.351Z,27.53
2019-02-07T10:33:30.590Z,27.73
2019-02-07T10:36:21.832Z,28.30
2019-02-07T10:39:19.018Z,26.85
2019-02-07T10:42:01.455Z,29.25
2019-02-07T10:44:53.795Z,28.63
2019-02-07T10:47:43.329Z,28.40
2019-02-07T10:50:29.924Z,30.45
2019-02-07T10:53:26.990Z,30.00
2019-02-07T10:56:27.536Z,26.90
2019-02-07T10:59:21.180Z,29.63
2019-02-07T11:02:15.129Z,28.43
2019-02-07T11:05:04.842Z,29.13
2019-02-07T11:07:56.667Z,29.30
2019-02-07T11:10:50.724Z,30.07
2019-02-07T11:13:37.859Z,29.90
2019-02-07T11:16:38.264Z,29.90
2019-02-07T11:19:25.371Z,29.27
2019-02-07T11:22:16.508Z,29.30
2019-02-07T11:25:03.555Z,30.10
2019-02-07T11:27:48.951Z,28.57
2019-02-07T11:30:43.862Z,28.50
2019-02-07T11:33:31.093Z,30.35
2019-02-07T11:36:13.843Z,29.87
2019-02-07T11:39:01.022Z,30.70
2019-02-07T11:41:46.133Z,29.42
2019-02-07T11:44:38.310Z,31.82
2019-02-07T11:47:27.274Z,31.90
2019-02-07T11:50:09.309Z,30.90
2019-02-07T11:52:47.774Z,29.53
2019-02-07T11:55:34.735Z,29.70
2019-02-07T11:58:27.551Z,29.90
2019-02-07T12:01:14.983Z,30.80
2019-02-07T12:04:20.521Z,29.63
2019-02-07T12:07:06.198Z,32.03
2019-02-07T12:09:48.941Z,31.60
2019-02-07T12:12:35.598Z,31.33
2019-02-07T12:15:26.571Z,27.73
2019-02-07T12:18:18.020Z,30.90
2019-02-07T12:21:13.834Z,30.90
2019-02-07T12:24:14.391Z,29.63
2019-02-07T12:27:01.953Z,32.00
2019-02-07T12:29:48.822Z,29.65
2019-02-07T12:32:43.132Z,31.07
2019-02-07T12:35:34.576Z,29.67
2019-02-07T12:38:29.828Z,32.50
2019-02-07T12:41:27.253Z,33.67
2019-02-07T12:44:13.770Z,31.70
2019-02-07T12:47:10.585Z,31.30
2019-02-07T12:50:11.257Z,33.60
2019-02-07T12:53:11.775Z,29.90
2019-02-07T12:55:58.799Z,33.33
2019-02-07T12:58:46.309Z,32.60
2019-02-07T13:01:46.643Z,32.87
2019-02-07T13:04:44.714Z,29.20
2019-02-07T13:07:32.474Z,28.97
2019-02-07T13:10:32.736Z,32.10
2019-02-07T13:13:32.273Z,31.37
2019-02-07T13:20:34.796Z,31.70
2019-02-07T13:23:36.070Z,29.17
2019-02-07T13:26:31.256Z,32.88
2019-02-07T13:29:33.024Z,38.20
2019-02-07T13:32:21.148Z,30.20
2019-02-07T13:35:17.925Z,32.90
2019-02-07T13:38:49.161Z,33.20
2019-02-07T13:41:53.222Z,32.73
2019-02-07T13:44:50.007Z,33.00
2019-02-07T13:47:58.388Z,31.50
2019-02-07T13:50:44.289Z,31.87
2019-02-07T13:53:54.583Z,33.90
2019-02-07T13:56:51.940Z,33.30
2019-02-07T13:59:40.937Z,34.63
2019-02-07T14:02:20.356Z,32.80
2019-02-07T14:05:14.958Z,34.95
2019-02-07T14:08:37.588Z,32.80
2019-02-07T14:11:16.784Z,32.50
2019-02-07T14:14:21.291Z,33.88
2019-02-07T14:20:34.033Z,33.47
2019-02-07T14:24:32.235Z,33.88
2019-02-07T14:27:38.672Z,34.98
2019-02-07T14:30:57.139Z,35.87
2019-02-07T14:33:44.086Z,33.48
2019-02-07T14:37:07.739Z,32.42
2019-02-07T14:40:56.952Z,32.75
2019-02-07T14:46:56.168Z,33.20
2019-02-07T15:04:47.496Z,36.13
2019-02-07T15:08:05.480Z,37.80
2019-02-07T15:28:04.474Z,34.73
2019-02-07T15:32:58.757Z,34.43
2019-02-07T16:21:51.186Z,36.38
2019-02-07T16:24:20.497Z,36.33
2019-02-07T16:26:55.670Z,35.00
2019-02-07T16:29:33.475Z,38.17
2019-02-07T16:43:20.081Z,37.93
2019-02-07T16:46:40.542Z,38.90
2019-02-07T16:49:10.192Z,35.60
2019-02-07T16:51:39.802Z,35.05
2019-02-07T16:54:09.468Z,35.43
2019-02-07T16:56:38.791Z,35.73
2019-02-07T16:59:08.055Z,33.10
2019-02-07T17:01:37.597Z,34.60
2019-02-07T17:04:07.541Z,35.73
2019-02-07T17:06:37.221Z,37.70
2019-02-07T17:09:19.051Z,33.23
2019-02-07T17:11:48.370Z,37.17
2019-02-07T17:14:18.502Z,36.87
2019-02-07T17:16:48.118Z,33.93
2019-02-07T17:19:17.373Z,36.50
2019-02-07T17:21:46.626Z,36.93
2019-02-07T17:24:15.929Z,33.93
2019-02-07T17:26:45.270Z,36.03
2019-02-07T17:29:14.493Z,36.73
2019-02-07T17:31:43.966Z,38.37
2019-02-07T17:34:13.120Z,37.40
2019-02-07T17:36:42.880Z,35.87
2019-02-07T17:39:12.140Z,35.53
2019-02-07T17:41:41.525Z,34.60
2019-02-07T17:44:10.775Z,35.27
2019-02-07T17:46:40.414Z,33.75
2019-02-07T17:49:10.501Z,33.90
2019-02-07T17:51:39.964Z,35.90
2019-02-07T17:54:18.555Z,31.67
2019-02-07T17:56:40.452Z,32.03
2019-02-07T17:59:09.832Z,33.47
2019-02-07T18:01:39.355Z,32.25
2019-02-07T18:04:09.039Z,36.47
2019-02-07T18:06:38.437Z,39.70
2019-02-07T18:09:09.832Z,37.80
2019-02-07T18:11:39.472Z,39.10
2019-02-07T18:14:08.730Z,40.23
2019-02-07T18:16:38.337Z,42.80
2019-02-07T18:19:07.533Z,40.10
2019-02-07T18:21:37.168Z,40.30
2019-02-07T18:24:07.116Z,35.37
2019-02-07T18:26:36.429Z,36.33
2019-02-07T18:29:05.875Z,34.00
2019-02-07T18:31:35.394Z,32.67
2019-02-07T18:34:05.372Z,35.57
2019-02-07T18:36:34.711Z,34.27
2019-02-07T18:39:06.920Z,37.50
2019-02-07T18:41:36.201Z,39.17
2019-02-07T18:44:05.848Z,41.50
2019-02-07T18:49:40.643Z,41.67
2019-02-07T18:52:30.362Z,39.10
2019-02-07T18:55:00.329Z,39.07
2019-02-07T18:57:29.624Z,38.60
2019-02-07T19:00:00.916Z,36.57
2019-02-07T19:02:30.010Z,39.07
2019-02-07T19:04:59.622Z,35.47
2019-02-07T19:07:33.517Z,37.60
2019-02-07T19:10:02.843Z,38.80
2019-02-07T19:12:32.531Z,35.77
2019-02-07T19:15:01.868Z,38.17
2019-02-07T19:17:31.164Z,39.47
2019-02-07T19:20:00.602Z,36.27
2019-02-07T19:22:29.973Z,34.67
2019-02-07T19:24:59.285Z,37.40
2019-02-07T19:27:28.891Z,34.47
2019-02-07T19:29:58.737Z,33.67
2019-02-07T19:32:28.120Z,34.73
2019-02-07T19:34:57.419Z,32.67
2019-02-07T19:37:26.911Z,36.83
2019-02-07T19:39:56.530Z,33.73
2019-02-07T19:42:26.371Z,30.50
2019-02-07T19:44:56.108Z,31.13
2019-02-07T19:47:26.044Z,27.97
2019-02-07T19:49:55.696Z,30.97
2019-02-07T19:52:25.416Z,30.97
2019-02-07T19:54:55.758Z,29.10
2019-02-07T19:57:25.526Z,31.20
2019-02-07T19:59:54.945Z,27.47
2019-02-07T20:02:24.198Z,26.30
2019-02-07T20:04:53.725Z,27.50
2019-02-07T20:07:23.035Z,26.70
2019-02-07T20:09:52.475Z,29.20
2019-02-07T20:12:21.874Z,26.90
2019-02-07T20:14:51.255Z,25.70
2019-02-07T20:17:20.555Z,27.10
2019-02-07T20:19:50.549Z,26.77
2019-02-07T20:22:20.594Z,27.37
2019-02-07T20:24:50.345Z,27.20
2019-02-07T20:27:20.199Z,28.37
2019-02-07T20:29:49.876Z,28.53
2019-02-07T20:32:19.515Z,26.83
2019-02-07T20:34:48.895Z,28.42
2019-02-07T20:37:18.889Z,28.33
2019-02-07T20:39:48.128Z,26.47
2019-02-07T20:42:17.710Z,25.83
2019-02-07T20:44:46.961Z,25.80
2019-02-07T20:47:16.339Z,28.57
2019-02-07T20:49:46.552Z,28.05
2019-02-07T20:52:15.877Z,24.80
2019-02-07T20:54:45.219Z,28.15
2019-02-07T20:57:14.532Z,27.63
2019-02-07T20:59:44.186Z,26.70
2019-02-07T21:02:13.479Z,25.40
2019-02-07T21:04:42.685Z,28.57
2019-02-07T21:07:11.979Z,25.60
2019-02-07T21:09:41.983Z,27.27
2019-02-07T21:12:11.322Z,26.48
2019-02-07T21:14:41.028Z,28.80
2019-02-07T21:17:10.611Z,25.95
2019-02-07T21:19:40.238Z,25.03
2019-02-07T21:22:09.520Z,26.83
2019-02-07T21:24:39.523Z,26.70
2019-02-07T21:27:08.776Z,29.32
2019-02-07T21:29:38.360Z,28.43
2019-02-07T21:32:07.636Z,31.20
2019-02-07T21:34:36.966Z,27.35
2019-02-07T21:37:06.604Z,28.60
2019-02-07T21:39:35.957Z,26.80
2019-02-07T21:42:05.531Z,28.60
2019-02-07T21:44:34.851Z,25.37
2019-02-07T21:47:04.527Z,26.62
2019-02-07T21:49:34.284Z,26.77
2019-02-07T21:52:03.610Z,25.93
2019-02-07T21:54:33.184Z,24.10
2019-02-07T21:57:02.495Z,24.50
2019-02-07T21:59:31.892Z,26.10
2019-02-07T22:02:01.129Z,23.75
2019-02-07T22:04:30.504Z,26.25
2019-02-07T22:06:59.814Z,26.40
2019-02-07T22:09:29.773Z,65.83
2019-02-07T22:12:03.426Z,78.53
2019-02-07T22:14:33.043Z,38.53
2019-02-07T22:17:02.587Z,32.83
2019-02-07T22:19:31.891Z,27.67
2019-02-07T22:22:01.219Z,27.03
2019-02-07T22:24:30.969Z,28.40
2019-02-07T22:27:00.797Z,27.90
2019-02-07T22:29:30.314Z,28.40
2019-02-07T22:31:59.976Z,27.63
2019-02-07T22:34:29.567Z,27.20
2019-02-07T22:36:58.882Z,23.87
2019-02-07T22:39:28.509Z,23.60
2019-02-07T22:41:58.115Z,23.20
2019-02-07T22:44:27.879Z,24.77
2019-02-07T22:46:57.440Z,26.40
2019-02-07T22:49:26.696Z,26.40
2019-02-07T22:51:55.984Z,24.47
2019-02-07T22:54:25.287Z,22.07
2019-02-07T22:56:54.699Z,24.43
2019-02-07T22:59:23.992Z,26.07
2019-02-07T23:01:55.599Z,23.50
2019-02-07T23:04:26.240Z,25.50
2019-02-07T23:06:55.567Z,22.43
2019-02-07T23:09:25.524Z,23.87
2019-02-07T23:11:55.445Z,25.27
2019-02-07T23:14:28.270Z,22.40
2019-02-07T23:16:58.648Z,23.90
2019-02-07T23:19:37.757Z,26.07
2019-02-07T23:22:12.774Z,22.20
2019-02-07T23:24:43.983Z,21.37
2019-02-07T23:27:37.720Z,21.10
2019-02-07T23:30:11.811Z,19.62
2019-02-07T23:32:43.898Z,18.90
2019-02-07T23:35:20.464Z,19.05
2019-02-07T23:37:50.100Z,19.40
2019-02-07T23:40:23.124Z,19.10
2019-02-07T23:42:54.167Z,18.30
2019-02-07T23:45:25.891Z,18.07
2019-02-07T23:48:00.844Z,16.65
2019-02-07T23:50:33.001Z,15.58
2019-02-07T23:53:02.234Z,16.70
2019-02-07T23:55:31.473Z,16.13
2019-02-07T23:58:01.174Z,14.77
